Bratenahl, Ohio
Current Conditions -  °F | °C
As of 7:53 PM on Monday 26 Jan 2015 (Local Time) from KBKL Reporting Station
Overcast Overcast  
Wind Chill: 12°   Ceiling: 2200
Heat Index: 22°   Visibility: 10mi
Dew Point: 15°   Wind: 9mph
Humidity: 75%   Direction: 350°N
Pressure: 29.93"   Gusts: NA
Location:  41.5405°N, 81.6075°W
Report Text: KBKL 270053Z 35008KT 10SM OVC022 M06/M09 A2993 RMK AO2 SLP142 T10561094
Loading
Personal Weather Stations






























Interactive Weather Map New forecast layout! Learn more

10-Day Weather Forecast

Advertisements
Track Severe Weather on mobile